TimeEST,TemperatureF,Dew PointF,Humidity,Sea Level PressureIn,VisibilityMPH,Wind Direction,Wind SpeedMPH,Gust SpeedMPH,PrecipitationIn,Events,Conditions,WindDirDegrees,DateUTC
12:53 AM,32.0,19.0,59,29.84,10.0,West,10.4,-,N/A,,Clear,270,2013-12-16 05:53:00
1:53 AM,30.9,19.0,61,29.86,10.0,WSW,8.1,-,N/A,,Scattered Clouds,240,2013-12-16 06:53:00
2:53 AM,28.9,19.0,67,29.88,10.0,WSW,6.9,-,N/A,,Clear,240,2013-12-16 07:53:00
3:53 AM,30.9,19.9,64,29.88,10.0,West,11.5,-,N/A,,Clear,260,2013-12-16 08:53:00
4:53 AM,32.0,19.0,59,29.90,10.0,West,12.7,-,N/A,,Overcast,270,2013-12-16 09:53:00
5:53 AM,30.9,12.9,47,29.94,10.0,WNW,15.0,27.6,N/A,,Scattered Clouds,290,2013-12-16 10:53:00
6:53 AM,28.9,10.9,47,29.97,10.0,West,11.5,-,N/A,,Clear,280,2013-12-16 11:53:00
7:53 AM,28.9,10.9,47,29.99,10.0,West,10.4,-,N/A,,Clear,280,2013-12-16 12:53:00
8:53 AM,30.0,12.9,49,30.03,10.0,NW,13.8,-,N/A,,Scattered Clouds,310,2013-12-16 13:53:00
9:53 AM,30.0,12.0,47,30.06,10.0,WNW,11.5,23.0,N/A,,Scattered Clouds,290,2013-12-16 14:53:00
10:53 AM,30.0,10.9,45,30.06,10.0,West,15.0,-,N/A,,Scattered Clouds,280,2013-12-16 15:53:00
11:53 AM,32.0,10.0,40,30.04,10.0,WNW,18.4,23.0,N/A,,Clear,300,2013-12-16 16:53:00
12:53 PM,32.0,10.0,40,30.04,10.0,NW,13.8,-,N/A,,Scattered Clouds,310,2013-12-16 17:53:00
1:53 PM,32.0,9.0,38,30.05,10.0,WNW,11.5,-,N/A,,Partly Cloudy,290,2013-12-16 18:53:00
2:53 PM,30.9,9.0,40,30.08,10.0,NW,15.0,20.7,N/A,,Partly Cloudy,310,2013-12-16 19:53:00
3:53 PM,30.0,8.1,40,30.11,10.0,West,10.4,-,N/A,,Mostly Cloudy,280,2013-12-16 20:53:00
4:53 PM,27.0,8.1,45,30.14,10.0,West,5.8,-,N/A,,Clear,280,2013-12-16 21:53:00
5:53 PM,21.9,8.1,55,30.17,10.0,West,3.5,-,N/A,,Clear,270,2013-12-16 22:53:00
6:53 PM,19.0,9.0,65,30.21,10.0,West,4.6,-,N/A,,Clear,270,2013-12-16 23:53:00
7:53 PM,15.1,6.1,68,30.22,10.0,Calm,Calm,-,N/A,,Clear,0,2013-12-17 00:53:00
8:53 PM,12.9,5.0,71,30.23,10.0,Calm,Calm,-,N/A,,Clear,0,2013-12-17 01:53:00
9:53 PM,12.0,5.0,73,30.24,10.0,Calm,Calm,-,N/A,,Clear,0,2013-12-17 02:53:00
10:53 PM,10.9,5.0,77,30.24,10.0,Calm,Calm,-,N/A,,Clear,0,2013-12-17 03:53:00
11:53 PM,10.0,3.9,76,30.25,10.0,Calm,Calm,-,N/A,,Clear,0,2013-12-17 04:53:00